Atmospheric History
12/06/2017 18:42  to  12/7/2017 18:42
Change End Date:
To complete the export process:
1) Select all of the data below
2) Copy the data to the clipboard
3) Open a word processor such as Notepad
4) Paste the data into the word processor
5) Save the file

Date/Time (MDT), AirTemp, RH, Dewpoint ,AvgWindSpeed, GustWindSpeed, WindDirection, PrecipType, PrecipIntensity, PrecipAccumulation, PrecipRate
12/07/2017 18:35, 39, 42, 18 ,7, 11, SW, None, None, ,  
12/07/2017 18:28, 39, 41, 17 ,4, 9, SE, None, None, ,  
12/07/2017 18:25, 39, 40, 17 ,6, 9, SW, None, None, ,  
12/07/2017 18:15, 39, 40, 17 ,5, 9, SW, None, None, ,  
12/07/2017 18:13, 38, 44, 18 ,4, 6, SW, None, None, ,  
12/07/2017 18:05, 38, 44, 19 ,4, 7, SW, None, None, ,  
12/07/2017 17:58, 39, 41, 17 ,4, 8, S, None, None, ,  
12/07/2017 17:55, 39, 42, 18 ,6, 8, S, None, None, ,  
12/07/2017 17:45, 42, 35, 17 ,7, 12, S, None, None, ,  
12/07/2017 17:43, 41, 37, 17 ,9, 12, NE, None, None, ,  
12/07/2017 17:35, 42, 36, 17 ,6, 12, S, None, None, ,  
12/07/2017 17:28, 40, 39, 18 ,5, 9, SW, None, None, ,  
12/07/2017 17:25, 42, 37, 17 ,4, 9, SW, None, None, ,  
12/07/2017 17:15, 42, 36, 17 ,5, 12, SW, None, None, ,  
12/07/2017 17:05, 42, 36, 17 ,8, 13, SW, None, None, ,  
12/07/2017 16:55, 40, 41, 18 ,7, 11, SW, None, None, ,  
12/07/2017 16:45, 43, 35, 17 ,7, 11, SW, None, None, ,  
12/07/2017 16:43, 43, 35, 17 ,6, 11, SW, None, None, ,  
12/07/2017 16:35, 43, 35, 17 ,6, 11, SW, None, None, ,  
12/07/2017 16:28, 43, 35, 17 ,6, 11, SW, None, None, ,  
12/07/2017 16:25, 43, 35, 17 ,7, 12, S, None, None, ,  
12/07/2017 16:15, 43, 35, 17 ,5, 10, SW, None, None, ,  
12/07/2017 16:13, 43, 35, 17 ,7, , E, None, None, ,  
12/07/2017 16:05, , ,   , , , -, None, None, ,  
12/07/2017 12:03, 41, 37, 17 ,7, 13, S, None, None, ,  
12/07/2017 11:53, 41, 37, 17 ,8, 16, E, None, None, ,  
12/07/2017 11:43, 40, 38, 17 ,11, 15, E, None, None, ,  
12/07/2017 11:33, 40, 37, 17 ,9, 14, E, None, None, ,  
12/07/2017 11:23, 40, 40, 18 ,9, 12, SW, None, None, ,  
12/07/2017 11:13, 39, 42, 18 ,4, 10, S, None, None, ,  
12/07/2017 11:03, 38, 44, 18 ,6, 11, SE, None, None, ,  
12/07/2017 10:53, 37, 45, 18 ,7, 10, S, None, None, ,  
12/07/2017 10:43, 36, 47, 18 ,2, 11, W, None, None, ,  
12/07/2017 10:33, 35, 48, 17 ,2, 7, SW, None, None, ,  
12/07/2017 10:23, 34, 50, 17 ,2, 6, SE, None, None, ,  
12/07/2017 10:13, 33, 52, 17 ,1, 9, W, None, None, ,  
12/07/2017 10:03, 32, 53, 17 ,2, 10, NE, None, None, ,  
12/07/2017 09:58, 32, 54, 17 ,4, 11, NE, None, None, ,  
12/07/2017 09:53, 31, 54, 17 ,8, 11, S, None, None, ,  
12/07/2017 09:43, 30, 57, 17 ,3, 11, SE, None, None, ,  
12/07/2017 09:33, 30, 57, 17 ,7, 11, S, None, None, ,  
12/07/2017 09:23, 29, 58, 17 ,8, 11, S, None, None, ,  
12/07/2017 09:13, 29, 58, 17 ,7, 11, S, None, None, ,  
12/07/2017 09:12, 29, 58, 17 ,8, 11, S, None, None, ,  
12/07/2017 09:02, 29, 61, 17 ,9, 11, S, None, None, ,  
12/07/2017 08:52, 29, 59, 17 ,9, 11, S, None, None, ,  
12/07/2017 08:42, 29, 60, 17 ,9, 11, S, None, None, ,  
12/07/2017 08:32, 29, 60, 16 ,4, 10, SE, None, None, ,  
12/07/2017 08:22, 28, 61, 16 ,8, 11, S, None, None, ,  
12/07/2017 08:12, 28, 63, 17 ,10, 12, S, None, None, ,  
12/07/2017 08:02, 28, 61, 16 ,8, 11, S, None, None, ,  
12/07/2017 07:52, 28, 62, 17 ,9, 11, S, None, None, ,  
12/07/2017 07:42, 28, 62, 17 ,7, 11, S, None, None, ,  
12/07/2017 07:32, 28, 61, 16 ,9, 11, S, None, None, ,  
12/07/2017 07:22, 28, 61, 16 ,9, 10, S, None, None, ,  
12/07/2017 07:13, 28, 60, 16 ,9, 11, S, None, None, ,  
12/07/2017 07:12, 28, 59, 16 ,8, 11, S, None, None, ,  
12/07/2017 07:02, 29, 59, 16 ,11, 12, S, None, None, ,  
12/07/2017 06:58, 28, 60, 16 ,8, 11, S, None, None, ,  
12/07/2017 06:52, 28, 60, 16 ,7, 12, S, None, None, ,  
12/07/2017 06:43, 28, 60, 16 ,9, 11, S, None, None, ,  
12/07/2017 06:41, 28, 60, 16 ,9, 11, S, None, None, ,  
12/07/2017 06:31, 29, 59, 16 ,7, 12, SE, None, None, ,  
12/07/2017 06:28, 29, 58, 16 ,9, 12, S, None, None, ,  
12/07/2017 06:21, 29, 58, 16 ,9, 11, S, None, None, ,  
12/07/2017 06:13, 29, 57, 16 ,6, 10, SE, None, None, ,  
12/07/2017 06:11, 29, 57, 16 ,5, 11, S, None, None, ,  
12/07/2017 06:01, 29, 58, 17 ,8, 12, S, None, None, ,  
12/07/2017 05:58, 29, 58, 16 ,8, 12, S, None, None, ,  
12/07/2017 05:51, 30, 57, 16 ,7, 11, S, None, None, ,  
12/07/2017 05:43, 29, 58, 17 ,8, 11, S, None, None, ,  
12/07/2017 05:41, 29, 58, 17 ,9, 11, S, None, None, ,  
12/07/2017 05:31, 29, 59, 17 ,8, 11, SE, None, None, ,  
12/07/2017 05:28, 29, 58, 17 ,6, 11, S, None, None, ,  
12/07/2017 05:21, 29, 58, 17 ,7, 11, S, None, None, ,  
12/07/2017 05:13, 30, 57, 16 ,7, 9, S, None, None, ,  
12/07/2017 05:11, 30, 56, 16 ,6, 9, S, None, None, ,  
12/07/2017 05:01, 29, 58, 17 ,9, 11, S, None, None, ,  
12/07/2017 04:58, 30, 57, 17 ,8, 10, S, None, None, ,  
12/07/2017 04:51, 29, 58, 17 ,7, 10, S, None, None, ,  
12/07/2017 04:43, 30, 57, 17 ,9, 11, S, None, None, ,  
12/07/2017 04:41, 30, 57, 17 ,8, 11, S, None, None, ,  
12/07/2017 04:31, 30, 56, 17 ,4, 9, S, None, None, ,  
12/07/2017 04:28, 30, 56, 17 ,5, 10, SW, None, None, ,  
12/07/2017 04:21, 30, 56, 17 ,7, 10, S, None, None, ,  
12/07/2017 04:13, 30, 56, 17 ,4, 8, SW, None, None, ,  
12/07/2017 04:11, 31, 56, 17 ,2, 8, S, None, None, ,  
12/07/2017 04:01, 31, 56, 17 ,6, 9, S, None, None, ,  
12/07/2017 03:58, 31, 56, 17 ,6, 9, S, None, None, ,  
12/07/2017 03:50, 31, 56, 17 ,6, 10, S, None, None, ,  
12/07/2017 03:43, 31, 55, 17 ,7, 10, S, None, None, ,  
12/07/2017 03:40, 31, 55, 17 ,7, 9, S, None, None, ,  
12/07/2017 03:30, 31, 55, 17 ,4, 7, SW, None, None, ,  
12/07/2017 03:28, 31, 55, 17 ,4, 9, S, None, None, ,  
12/07/2017 03:20, 31, 55, 17 ,6, 9, SW, None, None, ,  
12/07/2017 03:13, 31, 55, 17 ,5, 8, S, None, None, ,  
12/07/2017 03:10, 31, 55, 17 ,4, 8, S, None, None, ,  
12/07/2017 03:00, 31, 55, 17 ,6, 9, S, None, None, ,  
12/07/2017 02:58, 32, 54, 17 ,6, 9, S, None, None, ,  
12/07/2017 02:50, 32, 53, 17 ,4, 9, SW, None, None, ,  
12/07/2017 02:43, 32, 54, 17 ,7, 9, S, None, None, ,  
12/07/2017 02:40, 32, 53, 17 ,6, 9, S, None, None, ,  
12/07/2017 02:30, 32, 53, 17 ,6, 11, S, None, None, ,  
12/07/2017 02:28, 32, 53, 17 ,6, 12, SE, None, None, ,  
12/07/2017 02:20, 32, 53, 17 ,9, 12, S, None, None, ,  
12/07/2017 02:13, 33, 53, 17 ,7, 12, S, None, None, ,  
12/07/2017 02:10, 33, 52, 17 ,9, 12, S, None, None, ,  
12/07/2017 02:00, 33, 52, 18 ,7, 11, NE, None, None, ,  
12/07/2017 01:58, 33, 51, 17 ,6, 11, S, None, None, ,  
12/07/2017 01:50, 33, 51, 17 ,7, 11, E, None, None, ,  
12/07/2017 01:43, 33, 52, 17 ,7, 12, NE, None, None, ,  
12/07/2017 01:40, 33, 52, 17 ,9, 12, S, None, None, ,  
12/07/2017 01:30, 33, 52, 17 ,6, 9, S, None, None, ,  
12/07/2017 01:28, 33, 52, 17 ,6, 10, S, None, None, ,  
12/07/2017 01:20, 33, 53, 18 ,7, 9, S, None, None, ,  
12/07/2017 01:13, 33, 52, 17 ,4, 9, SW, None, None, ,  
12/07/2017 01:09, 33, 52, 17 ,6, 9, S, None, None, ,  
12/07/2017 00:59, 33, 53, 18 ,7, 11, S, None, None, ,  
12/07/2017 00:58, 33, 52, 17 ,7, 11, S, None, None, ,  
12/07/2017 00:49, 34, 49, 17 ,4, 11, S, None, None, ,  
12/07/2017 00:43, 34, 50, 17 ,7, 11, S, None, None, ,  
12/07/2017 00:39, 34, 49, 17 ,7, 10, E, None, None, ,  
12/07/2017 00:29, 33, 51, 17 ,6, 10, S, None, None, ,  
12/07/2017 00:28, 34, 51, 17 ,6, 10, S, None, None, ,  
12/07/2017 00:19, 34, 51, 17 ,7, 12, S, None, None, ,  
12/07/2017 00:13, 33, 51, 17 ,9, 12, S, None, None, ,  
12/07/2017 00:09, 33, 52, 17 ,6, 11, S, None, None, ,  
12/06/2017 23:59, 33, 51, 17 ,7, 10, S, None, None, ,  
12/06/2017 23:58, 33, 52, 17 ,7, 11, E, None, None, ,  
12/06/2017 23:49, 34, 50, 17 ,9, 12, S, None, None, ,  
12/06/2017 23:43, 33, 51, 17 ,7, 12, S, None, None, ,  
12/06/2017 23:39, 34, 50, 17 ,7, 12, S, None, None, ,  
12/06/2017 23:29, 34, 49, 17 ,7, 11, S, None, None, ,  
12/06/2017 23:28, 34, 49, 17 ,7, 11, SW, None, None, ,  
12/06/2017 23:19, 34, 49, 17 ,7, 12, S, None, None, ,  
12/06/2017 23:13, 34, 49, 17 ,7, 12, S, None, None, ,  
12/06/2017 23:09, 34, 50, 17 ,6, 9, SW, None, None, ,  
12/06/2017 22:59, 34, 49, 17 ,5, 12, S, None, None, ,  
12/06/2017 22:58, 34, 48, 17 ,7, 12, SW, None, None, ,  
12/06/2017 22:49, 34, 50, 17 ,7, 12, S, None, None, ,  
12/06/2017 22:43, 33, 51, 17 ,8, 11, SW, None, None, ,  
12/06/2017 22:39, 33, 51, 17 ,7, 11, SW, None, None, ,  
12/06/2017 22:29, 33, 51, 17 ,7, 12, SW, None, None, ,  
12/06/2017 22:28, 33, 51, 17 ,7, 12, SW, None, None, ,  
12/06/2017 22:18, 33, 51, 17 ,6, 11, SW, None, None, ,  
12/06/2017 22:13, 33, 51, 17 ,5, 11, S, None, None, ,  
12/06/2017 22:08, 33, 50, 17 ,6, 9, NE, None, None, ,  
12/06/2017 21:58, 33, 51, 17 ,8, 12, NE, None, None, ,  
12/06/2017 21:58, 33, 52, 17 ,7, 12, NE, None, None, ,  
12/06/2017 21:48, 33, 53, 17 ,7, 12, SW, None, None, ,  
12/06/2017 21:43, 33, 51, 17 ,7, 11, SW, None, None, ,  
12/06/2017 21:38, 33, 50, 17 ,6, 14, S, None, None, ,  
12/06/2017 21:28, 33, 51, 17 ,9, 13, SW, None, None, ,  
12/06/2017 21:28, 33, 51, 17 ,9, 13, SW, None, None, ,  
12/06/2017 21:18, 32, 53, 17 ,4, 10, S, None, None, ,  
12/06/2017 21:13, 32, 53, 17 ,4, 10, NE, None, None, ,  
12/06/2017 21:08, 32, 54, 17 ,5, 9, SW, None, None, ,  
12/06/2017 20:58, 32, 53, 17 ,6, 12, S, None, None, ,  
12/06/2017 20:58, 32, 53, 17 ,6, 12, S, None, None, ,  
12/06/2017 20:48, 32, 52, 17 ,4, 10, SW, None, None, ,  
12/06/2017 20:43, 32, 53, 17 ,7, 10, SW, None, None, ,  
12/06/2017 20:38, 32, 53, 17 ,6, 11, S, None, None, ,  
12/06/2017 20:28, 32, 54, 17 ,6, 9, SE, None, None, ,  
12/06/2017 20:28, 32, 54, 17 ,6, 9, SE, None, None, ,  
12/06/2017 20:18, 32, 52, 17 ,3, 11, SE, None, None, ,  
12/06/2017 20:13, 33, 52, 17 ,7, 12, S, None, None, ,  
12/06/2017 20:08, 32, 52, 17 ,9, 12, NE, None, None, ,  
12/06/2017 19:58, 32, 53, 17 ,7, 10, SW, None, None, ,  
12/06/2017 19:58, 32, 53, 17 ,7, 10, SW, None, None, ,  
12/06/2017 19:48, 33, 52, 17 ,6, 9, S, None, None, ,  
12/06/2017 19:43, 33, 51, 17 ,4, 7, SW, None, None, ,  
12/06/2017 19:37, 33, 52, 17 ,4, 9, S, None, None, ,  
12/06/2017 19:28, 33, 52, 17 ,6, 9, S, None, None, ,  
12/06/2017 19:27, 33, 52, 17 ,6, 9, S, None, None, ,  
12/06/2017 19:17, 33, 50, 17 ,4, 9, SW, None, None, ,  
12/06/2017 19:07, 34, 51, 17 ,6, 9, SW, None, None, ,  
12/06/2017 18:58, 34, 51, 18 ,8, 14, SW, None, None, ,  
12/06/2017 18:57, 34, 51, 18 ,7, 14, SW, None, None, ,  
12/06/2017 18:47, 34, 49, 17 ,7, 11, SW, None, None, ,  
12/06/2017 18:43, 34, 50, 17 ,8, 11, E, None, None, ,  
Change End Date:

Copyright © 1998-2015 Vaisala, Inc.
All Rights Reserved
Send comments about the data to:
SCAN Web ® is a registered trademark of Vaisala, Inc.
SCAN Web Version 6.0